createdAt,value
2023-04-16T00:00:41.905Z,140.40
2023-04-16T00:01:41.890Z,127.00
2023-04-16T00:02:41.910Z,131.70
2023-04-16T00:03:41.949Z,124.50
2023-04-16T00:04:41.749Z,131.80
2023-04-16T00:05:41.655Z,135.00
2023-04-16T00:06:41.550Z,126.20
2023-04-16T00:07:41.513Z,128.60
2023-04-16T00:08:41.428Z,128.00
2023-04-16T00:09:41.377Z,131.80
2023-04-16T00:10:41.272Z,126.90
2023-04-16T00:11:41.225Z,123.60
2023-04-16T00:12:41.196Z,129.10
2023-04-16T00:13:41.088Z,130.70
2023-04-16T00:14:41.052Z,117.50
2023-04-16T00:16:50.263Z,116.60
2023-04-16T00:17:51.228Z,123.20
2023-04-16T00:18:51.075Z,125.30
2023-04-16T00:19:50.981Z,120.30
2023-04-16T00:20:50.984Z,124.10
2023-04-16T00:21:50.904Z,128.50
2023-04-16T00:22:50.836Z,132.50
2023-04-16T00:23:50.742Z,127.60
2023-04-16T00:24:50.707Z,117.10
2023-04-16T00:25:50.661Z,127.90
2023-04-16T00:26:50.583Z,129.50
2023-04-16T00:27:50.809Z,124.00
2023-04-16T00:28:50.444Z,130.50
2023-04-16T00:29:50.366Z,128.00
2023-04-16T00:30:50.334Z,122.60
2023-04-16T00:31:50.226Z,125.60
2023-04-16T00:32:50.218Z,133.00
2023-04-16T00:33:50.178Z,124.50
2023-04-16T00:34:50.068Z,124.80
2023-04-16T00:35:50.006Z,131.40
2023-04-16T00:36:49.972Z,123.00
2023-04-16T00:37:49.846Z,134.40
2023-04-16T00:38:49.783Z,130.30
2023-04-16T00:39:50.057Z,127.00
2023-04-16T00:40:49.713Z,128.60
2023-04-16T00:41:49.625Z,132.90
2023-04-16T00:42:49.552Z,130.30
2023-04-16T00:43:49.489Z,130.40
2023-04-16T00:44:49.404Z,121.20
2023-04-16T00:45:49.352Z,121.10
2023-04-16T00:46:49.277Z,130.80
2023-04-16T00:47:49.254Z,120.20
2023-04-16T00:48:49.173Z,123.00
2023-04-16T00:49:49.113Z,124.60
2023-04-16T00:50:49.082Z,121.10
2023-04-16T00:52:06.471Z,122.30
2023-04-16T00:52:48.927Z,124.00
2023-04-16T00:53:48.865Z,127.20
2023-04-16T00:54:48.830Z,116.50
2023-04-16T00:55:48.712Z,118.50
2023-04-16T00:56:48.642Z,129.00
2023-04-16T00:57:48.612Z,119.70
2023-04-16T00:58:48.533Z,119.10
2023-04-16T00:59:48.475Z,128.10
2023-04-16T01:00:48.402Z,135.00
2023-04-16T01:01:48.394Z,128.90
2023-04-16T01:02:48.379Z,118.30
2023-04-16T01:04:23.818Z,123.20
2023-04-16T01:04:48.192Z,120.40
2023-04-16T01:05:48.095Z,117.00
2023-04-16T01:06:48.041Z,121.80
2023-04-16T01:07:47.964Z,117.40
2023-04-16T01:08:47.895Z,114.80
2023-04-16T01:09:47.862Z,106.70
2023-04-16T01:10:47.818Z,117.20
2023-04-16T01:11:47.689Z,120.40
2023-04-16T01:12:47.663Z,127.40
2023-04-16T01:13:47.615Z,121.20
2023-04-16T01:14:47.505Z,123.10
2023-04-16T01:15:47.548Z,113.50
2023-04-16T01:16:47.410Z,121.50
2023-04-16T01:17:47.407Z,129.50
2023-04-16T01:18:47.243Z,124.00
2023-04-16T01:19:47.182Z,120.10
2023-04-16T01:20:47.153Z,117.50
2023-04-16T01:21:47.112Z,119.20
2023-04-16T01:22:47.022Z,118.00
2023-04-16T01:23:46.930Z,128.90
2023-04-16T01:24:46.891Z,111.40
2023-04-16T01:25:46.838Z,114.00
2023-04-16T01:26:46.772Z,126.30
2023-04-16T01:27:46.691Z,116.10
2023-04-16T01:28:46.638Z,115.40
2023-04-16T01:29:46.578Z,117.00
2023-04-16T01:30:46.539Z,110.00
2023-04-16T01:31:46.532Z,109.80
2023-04-16T01:32:46.449Z,121.70
2023-04-16T01:33:46.370Z,120.30
2023-04-16T01:34:46.238Z,111.60
2023-04-16T01:35:46.176Z,113.80
2023-04-16T01:36:46.130Z,119.20
2023-04-16T01:37:46.046Z,116.30
2023-04-16T01:38:46.005Z,119.80
2023-04-16T01:39:45.962Z,117.00
2023-04-16T01:40:45.850Z,121.10
2023-04-16T01:41:45.791Z,118.50
2023-04-16T01:42:45.787Z,133.20
2023-04-16T01:43:45.691Z,132.70
2023-04-16T01:44:45.627Z,128.30
2023-04-16T01:46:02.899Z,119.60
2023-04-16T01:46:45.493Z,122.70
2023-04-16T01:47:45.452Z,113.10
2023-04-16T01:48:45.376Z,120.30
2023-04-16T01:49:45.297Z,126.80
2023-04-16T01:50:45.238Z,115.80
2023-04-16T01:51:45.201Z,132.50
2023-04-16T01:52:45.133Z,127.30
2023-04-16T01:53:45.052Z,118.90
2023-04-16T01:54:44.995Z,120.20
2023-04-16T01:55:44.958Z,131.30
2023-04-16T01:56:44.863Z,119.30
2023-04-16T01:57:44.804Z,130.10
2023-04-16T01:58:44.766Z,128.30
2023-04-16T01:59:44.675Z,130.40
2023-04-16T02:00:44.624Z,124.40
2023-04-16T02:01:44.620Z,122.30
2023-04-16T02:02:44.659Z,130.10
2023-04-16T02:04:19.387Z,138.20
2023-04-16T02:04:44.394Z,119.60
2023-04-16T02:05:44.292Z,135.10
2023-04-16T02:06:44.199Z,120.40
2023-04-16T02:07:44.146Z,119.40
2023-04-16T02:08:44.109Z,121.10
2023-04-16T02:10:18.964Z,117.40
2023-04-16T02:10:43.976Z,122.70
2023-04-16T02:11:43.911Z,125.30
2023-04-16T02:12:43.866Z,122.50
2023-04-16T02:13:43.813Z,117.20
2023-04-16T02:14:43.748Z,114.70
2023-04-16T02:15:43.645Z,131.60
2023-04-16T02:16:43.627Z,119.90
2023-04-16T02:17:43.561Z,128.00
2023-04-16T02:18:43.472Z,129.60
2023-04-16T02:19:43.397Z,133.20
2023-04-16T02:20:43.342Z,127.00
2023-04-16T02:21:43.327Z,123.50
2023-04-16T02:22:43.208Z,141.50
2023-04-16T02:23:43.155Z,130.60
2023-04-16T02:24:43.114Z,134.00
2023-04-16T02:25:43.046Z,128.20
2023-04-16T02:26:42.957Z,143.50
2023-04-16T02:27:42.878Z,140.90
2023-04-16T02:28:42.840Z,137.70
2023-04-16T02:29:42.738Z,146.00
2023-04-16T02:30:42.715Z,146.50
2023-04-16T02:31:42.661Z,132.90
2023-04-16T02:32:42.589Z,132.10
2023-04-16T02:34:17.576Z,133.00
2023-04-16T02:34:42.453Z,135.30
2023-04-16T02:35:42.367Z,140.80
2023-04-16T02:36:42.330Z,141.60
2023-04-16T02:37:42.257Z,136.30
2023-04-16T02:38:42.224Z,138.80
2023-04-16T02:39:59.510Z,142.20
2023-04-16T02:40:42.102Z,144.60
2023-04-16T02:41:42.028Z,133.80
2023-04-16T02:42:41.923Z,139.80
2023-04-16T02:43:41.851Z,142.00
2023-04-16T02:44:41.865Z,137.50
2023-04-16T02:45:41.796Z,135.20
2023-04-16T02:46:41.718Z,142.10
2023-04-16T02:47:41.647Z,142.10
2023-04-16T02:48:41.563Z,144.10
2023-04-16T02:49:41.495Z,142.60
2023-04-16T02:50:41.472Z,158.20
2023-04-16T02:51:41.370Z,154.70
2023-04-16T02:52:41.304Z,167.30
2023-04-16T02:53:41.225Z,161.70
2023-04-16T02:54:41.192Z,158.80
2023-04-16T02:55:41.118Z,155.40
2023-04-16T02:56:41.026Z,164.90
2023-04-16T02:57:58.406Z,169.20
2023-04-16T02:58:40.895Z,170.30
2023-04-16T02:59:40.896Z,170.40
2023-04-16T03:00:40.797Z,172.40
2023-04-16T03:01:40.786Z,173.90
2023-04-16T03:02:40.786Z,184.50
2023-04-16T03:03:40.627Z,186.20
2023-04-16T03:04:40.624Z,189.50
2023-04-16T03:05:40.614Z,201.30
2023-04-16T03:06:40.396Z,207.60
2023-04-16T03:07:40.327Z,208.70
2023-04-16T03:08:40.291Z,215.20
2023-04-16T03:09:40.279Z,224.10
2023-04-16T03:10:40.164Z,225.90
2023-04-16T03:11:40.101Z,235.60
2023-04-16T03:12:40.067Z,222.00
2023-04-16T03:13:39.999Z,232.70
2023-04-16T03:14:39.915Z,236.40
2023-04-16T03:15:40.141Z,243.10
2023-04-16T03:16:39.779Z,235.30
2023-04-16T03:17:39.788Z,246.30
2023-04-16T03:18:39.682Z,261.50
2023-04-16T03:19:39.618Z,254.00
2023-04-16T03:20:39.537Z,255.20
2023-04-16T03:21:39.503Z,266.50
2023-04-16T03:22:39.390Z,284.70
2023-04-16T03:23:39.373Z,285.60
2023-04-16T03:24:39.277Z,279.70
2023-04-16T03:25:39.188Z,280.90
2023-04-16T03:26:39.147Z,294.80
2023-04-16T03:27:39.130Z,298.80
2023-04-16T03:28:39.056Z,313.70
2023-04-16T03:29:38.961Z,283.10
2023-04-16T03:30:38.895Z,324.30
2023-04-16T03:31:38.889Z,323.90
2023-04-16T03:32:38.824Z,312.20
2023-04-16T03:33:38.745Z,318.50
2023-04-16T03:34:38.622Z,289.80
2023-04-16T03:35:38.578Z,313.90
2023-04-16T03:36:38.515Z,322.10
2023-04-16T03:37:38.458Z,331.00
2023-04-16T03:38:38.415Z,328.50
2023-04-16T03:39:38.363Z,319.40
2023-04-16T03:40:38.263Z,304.30
2023-04-16T03:41:38.196Z,315.90
2023-04-16T03:42:38.170Z,294.40
2023-04-16T03:43:38.157Z,288.20
2023-04-16T03:44:38.009Z,282.40
2023-04-16T03:45:37.922Z,293.90
2023-04-16T03:46:38.002Z,319.80
2023-04-16T03:47:37.866Z,288.70
2023-04-16T03:48:37.750Z,292.70
2023-04-16T03:49:37.695Z,298.00
2023-04-16T03:50:37.627Z,272.70
2023-04-16T03:52:47.187Z,275.40
2023-04-16T03:53:47.721Z,276.60
2023-04-16T03:54:47.630Z,280.20
2023-04-16T03:55:47.622Z,268.30
2023-04-16T03:56:47.542Z,285.20
2023-04-16T03:57:47.506Z,289.40
2023-04-16T03:58:47.448Z,281.40
2023-04-16T03:59:47.323Z,283.60
2023-04-16T04:00:47.282Z,271.40
2023-04-16T04:01:47.286Z,285.00
2023-04-16T04:02:47.272Z,285.30
2023-04-16T04:03:47.281Z,265.70
2023-04-16T04:04:47.180Z,278.80
2023-04-16T04:05:46.992Z,264.30
2023-04-16T04:06:46.898Z,271.90
2023-04-16T04:07:46.838Z,269.10
2023-04-16T04:08:46.800Z,251.80
2023-04-16T04:09:46.744Z,266.90
2023-04-16T04:11:21.249Z,245.30
2023-04-16T04:11:46.538Z,261.00
2023-04-16T04:12:46.514Z,257.40
2023-04-16T04:13:46.414Z,240.50
2023-04-16T04:14:46.358Z,237.30
2023-04-16T04:15:46.304Z,249.30
2023-04-16T04:16:46.289Z,243.50
2023-04-16T04:17:46.224Z,225.40
2023-04-16T04:18:46.122Z,229.00
2023-04-16T04:20:00.028Z,237.10
2023-04-16T04:20:45.993Z,227.90
2023-04-16T04:21:45.920Z,241.70
2023-04-16T04:22:45.836Z,238.70
2023-04-16T04:23:45.770Z,231.80
2023-04-16T04:24:45.683Z,221.80
2023-04-16T04:25:45.685Z,214.30
2023-04-16T04:26:45.616Z,229.70
2023-04-16T04:27:45.505Z,215.70
2023-04-16T04:28:45.470Z,208.20
2023-04-16T04:29:45.360Z,217.90
2023-04-16T04:30:45.329Z,213.80
2023-04-16T04:31:45.338Z,208.20
2023-04-16T04:32:45.212Z,211.90
2023-04-16T04:33:45.142Z,209.50
2023-04-16T04:34:45.112Z,211.40
2023-04-16T04:35:45.005Z,216.90
2023-04-16T04:36:44.946Z,208.00
2023-04-16T04:37:44.878Z,202.40
2023-04-16T04:38:44.837Z,198.50
2023-04-16T04:39:44.776Z,203.60
2023-04-16T04:40:44.700Z,186.80
2023-04-16T04:41:44.622Z,199.20
2023-04-16T04:42:44.547Z,189.00
2023-04-16T04:43:44.465Z,205.40
2023-04-16T04:44:44.430Z,198.60
2023-04-16T04:45:44.381Z,185.70
2023-04-16T04:47:18.992Z,185.40
2023-04-16T04:47:44.241Z,185.70
2023-04-16T04:48:44.181Z,186.30
2023-04-16T04:49:44.092Z,174.30
2023-04-16T04:50:44.041Z,182.30
2023-04-16T04:51:43.980Z,177.30
2023-04-16T04:52:43.981Z,184.50
2023-04-16T04:53:43.857Z,183.90
2023-04-16T04:54:43.814Z,186.40
2023-04-16T04:55:43.699Z,179.40
2023-04-16T04:56:43.686Z,195.90
2023-04-16T04:57:43.581Z,182.50
2023-04-16T04:58:43.548Z,175.00
2023-04-16T04:59:43.477Z,171.00
2023-04-16T05:00:43.496Z,178.30
2023-04-16T05:01:43.377Z,173.70
2023-04-16T05:02:43.480Z,172.90
2023-04-16T05:03:43.421Z,177.80
2023-04-16T05:04:43.209Z,179.20
2023-04-16T05:05:43.075Z,169.20
2023-04-16T05:06:43.019Z,172.80
2023-04-16T05:07:42.963Z,181.40
2023-04-16T05:08:42.928Z,188.10
2023-04-16T05:10:03.947Z,178.90
2023-04-16T05:10:42.749Z,173.30
2023-04-16T05:11:42.705Z,170.70
2023-04-16T05:12:42.625Z,178.50
2023-04-16T05:13:42.552Z,162.30
2023-04-16T05:14:42.518Z,169.70
2023-04-16T05:15:42.463Z,168.80
2023-04-16T05:16:42.452Z,165.90
2023-04-16T05:17:42.361Z,166.50
2023-04-16T05:18:42.263Z,159.30
2023-04-16T05:19:42.182Z,160.30
2023-04-16T05:20:42.144Z,160.40
2023-04-16T05:21:59.449Z,159.10
2023-04-16T05:22:42.009Z,154.10
2023-04-16T05:23:41.942Z,149.80
2023-04-16T05:24:41.925Z,140.70
2023-04-16T05:25:41.816Z,143.60
2023-04-16T05:26:41.748Z,142.40
2023-04-16T05:27:41.690Z,136.90
2023-04-16T05:28:41.656Z,132.50
2023-04-16T05:29:41.561Z,126.00
2023-04-16T05:30:41.538Z,132.60
2023-04-16T05:31:41.468Z,128.70
2023-04-16T05:32:41.449Z,121.40
2023-04-16T05:33:41.343Z,118.10
2023-04-16T05:34:41.212Z,110.70
2023-04-16T05:35:41.183Z,118.40
2023-04-16T05:36:41.087Z,111.10
2023-04-16T05:37:41.023Z,114.90
2023-04-16T05:38:41.016Z,116.60
2023-04-16T05:39:58.341Z,114.90
2023-04-16T05:40:40.874Z,108.00
2023-04-16T05:41:40.767Z,105.20
2023-04-16T05:42:40.733Z,102.10
2023-04-16T05:43:40.686Z,110.30
2023-04-16T05:44:40.577Z,112.70
2023-04-16T05:45:40.525Z,110.70
2023-04-16T05:46:40.564Z,100.20
2023-04-16T05:47:40.403Z,106.50
2023-04-16T05:48:40.352Z,101.20
2023-04-16T05:49:40.307Z,100.40
2023-04-16T05:50:40.249Z,99.70
2023-04-16T05:51:40.187Z,87.30
2023-04-16T05:52:40.098Z,94.20
2023-04-16T05:53:40.038Z,88.20
2023-04-16T05:54:39.998Z,83.40
2023-04-16T05:55:39.897Z,92.10
2023-04-16T05:56:39.858Z,92.60
2023-04-16T05:57:39.748Z,92.80
2023-04-16T05:58:39.681Z,88.50
2023-04-16T05:59:39.642Z,94.30
2023-04-16T06:00:39.549Z,95.20
2023-04-16T06:01:39.550Z,94.40
2023-04-16T06:02:39.623Z,96.30
2023-04-16T06:03:39.445Z,98.90
2023-04-16T06:04:39.360Z,90.40
2023-04-16T06:05:39.291Z,85.00
2023-04-16T06:06:39.173Z,93.40
2023-04-16T06:07:39.134Z,90.40
2023-04-16T06:08:39.073Z,87.30
2023-04-16T06:09:38.988Z,91.00
2023-04-16T06:10:38.920Z,96.30
2023-04-16T06:11:38.923Z,102.60
2023-04-16T06:12:38.819Z,104.20
2023-04-16T06:13:38.776Z,101.80
2023-04-16T06:14:38.694Z,92.50
2023-04-16T06:15:38.654Z,104.10
2023-04-16T06:16:38.580Z,105.60
2023-04-16T06:17:38.552Z,95.20
2023-04-16T06:18:38.468Z,101.60
2023-04-16T06:19:38.372Z,96.80
2023-04-16T06:20:38.316Z,98.40
2023-04-16T06:21:38.264Z,94.30
2023-04-16T06:22:38.187Z,95.00
2023-04-16T06:23:38.120Z,97.30
2023-04-16T06:24:38.093Z,98.20
2023-04-16T06:25:37.997Z,92.00
2023-04-16T06:26:37.903Z,94.40
2023-04-16T06:27:38.160Z,96.50
2023-04-16T06:28:37.803Z,90.90
2023-04-16T06:29:41.480Z,89.80
2023-04-16T06:30:37.711Z,93.90
2023-04-16T06:31:37.662Z,87.30
2023-04-16T06:32:37.599Z,101.10
2023-04-16T06:33:54.886Z,97.70
2023-04-16T06:34:37.437Z,104.00
2023-04-16T06:35:37.392Z,93.30
2023-04-16T06:36:37.337Z,104.00
2023-04-16T06:37:37.216Z,96.10
2023-04-16T06:38:37.157Z,95.30
2023-04-16T06:39:37.118Z,102.80
2023-04-16T06:40:37.055Z,104.30
2023-04-16T06:41:37.001Z,99.80
2023-04-16T06:42:36.947Z,104.80
2023-04-16T06:43:36.840Z,115.90
2023-04-16T06:44:36.794Z,100.90
2023-04-16T06:45:36.784Z,107.80
2023-04-16T06:46:36.735Z,107.80
2023-04-16T06:47:36.656Z,108.40
2023-04-16T06:48:36.554Z,103.10
2023-04-16T06:49:36.512Z,103.20
2023-04-16T06:50:36.411Z,107.70
2023-04-16T06:51:36.352Z,106.70
2023-04-16T06:52:36.327Z,110.00
2023-04-16T06:53:36.226Z,109.10
2023-04-16T06:54:36.154Z,106.50
2023-04-16T06:55:36.082Z,118.50
2023-04-16T06:56:36.064Z,115.80
2023-04-16T06:57:37.352Z,119.30
2023-04-16T06:58:35.910Z,112.00
2023-04-16T06:59:35.826Z,117.40
2023-04-16T07:00:35.793Z,111.90
2023-04-16T07:01:35.715Z,114.40
2023-04-16T07:02:35.834Z,111.40
2023-04-16T07:03:35.873Z,110.60
2023-04-16T07:04:35.503Z,112.70
2023-04-16T07:05:35.442Z,117.60
2023-04-16T07:06:35.409Z,120.10
2023-04-16T07:07:35.331Z,128.40
2023-04-16T07:08:35.275Z,122.20
2023-04-16T07:09:52.567Z,115.30
2023-04-16T07:10:35.153Z,124.20
2023-04-16T07:11:35.054Z,125.90
2023-04-16T07:12:35.015Z,122.30
2023-04-16T07:13:34.982Z,113.40
2023-04-16T07:14:34.891Z,112.40
2023-04-16T07:15:34.836Z,107.30
2023-04-16T07:16:34.832Z,113.50
2023-04-16T07:17:34.772Z,110.30
2023-04-16T07:18:34.612Z,119.80
2023-04-16T07:19:34.557Z,116.80
2023-04-16T07:20:34.544Z,124.50
2023-04-16T07:21:34.432Z,121.80
2023-04-16T07:22:34.417Z,120.20
2023-04-16T07:23:34.347Z,116.80
2023-04-16T07:24:34.254Z,121.20
2023-04-16T07:25:34.231Z,128.80
2023-04-16T07:26:34.137Z,129.60
2023-04-16T07:27:34.050Z,144.30
2023-04-16T07:28:34.012Z,127.90
2023-04-16T07:29:33.965Z,126.50
2023-04-16T07:30:33.877Z,124.30
2023-04-16T07:31:33.869Z,133.80
2023-04-16T07:32:33.770Z,132.60
2023-04-16T07:33:33.745Z,131.00
2023-04-16T07:34:33.624Z,123.00
2023-04-16T07:35:33.553Z,133.80
2023-04-16T07:36:33.494Z,137.00
2023-04-16T07:37:33.425Z,142.00
2023-04-16T07:38:33.378Z,144.90
2023-04-16T07:39:33.320Z,131.60
2023-04-16T07:40:33.211Z,138.10
2023-04-16T07:41:33.145Z,148.70
2023-04-16T07:42:33.113Z,138.50
2023-04-16T07:43:33.059Z,153.20
2023-04-16T07:44:32.979Z,145.80
2023-04-16T07:45:32.931Z,144.80
2023-04-16T07:46:45.705Z,133.60
2023-04-16T07:47:32.803Z,151.80
2023-04-16T07:48:32.766Z,146.60
2023-04-16T07:49:32.655Z,141.80
2023-04-16T07:50:32.605Z,148.50
2023-04-16T07:51:32.566Z,134.70
2023-04-16T07:52:32.509Z,136.20
2023-04-16T07:53:32.432Z,145.80
2023-04-16T07:54:32.328Z,147.80
2023-04-16T07:55:32.290Z,151.20
2023-04-16T07:56:32.191Z,150.70
2023-04-16T07:57:32.176Z,162.80
2023-04-16T07:58:32.099Z,163.00
2023-04-16T07:59:32.060Z,157.50
2023-04-16T08:00:31.969Z,175.40
2023-04-16T08:01:31.904Z,170.70
2023-04-16T08:02:31.844Z,179.30
2023-04-16T08:03:49.363Z,176.00
2023-04-16T08:04:31.903Z,175.00
2023-04-16T08:05:31.642Z,191.30
2023-04-16T08:06:31.611Z,192.50
2023-04-16T08:07:33.946Z,198.50
2023-04-16T08:08:31.488Z,204.20
2023-04-16T08:09:31.427Z,204.30
2023-04-16T08:10:31.362Z,202.90
2023-04-16T08:11:31.271Z,212.20
2023-04-16T08:12:31.183Z,213.30
2023-04-16T08:13:33.095Z,197.20
2023-04-16T08:14:31.052Z,209.10
2023-04-16T08:15:31.075Z,210.70
2023-04-16T08:16:30.961Z,226.50
2023-04-16T08:17:30.925Z,240.20
2023-04-16T08:18:30.851Z,240.20
2023-04-16T08:19:30.765Z,227.50
2023-04-16T08:20:30.677Z,247.90
2023-04-16T08:21:47.992Z,232.30
2023-04-16T08:22:30.554Z,269.60
2023-04-16T08:23:30.507Z,249.20
2023-04-16T08:24:30.420Z,252.20
2023-04-16T08:25:30.387Z,269.50
2023-04-16T08:26:30.340Z,276.30
2023-04-16T08:27:30.271Z,284.70
2023-04-16T08:28:30.191Z,283.00
2023-04-16T08:29:30.130Z,299.10
2023-04-16T08:30:30.063Z,286.40
2023-04-16T08:31:30.108Z,285.90
2023-04-16T08:32:30.002Z,304.70
2023-04-16T08:33:29.877Z,287.40
2023-04-16T08:34:29.777Z,278.60
2023-04-16T08:35:29.741Z,296.20
2023-04-16T08:36:29.713Z,306.80
2023-04-16T08:37:29.614Z,313.20
2023-04-16T08:38:29.553Z,303.40
2023-04-16T08:39:29.527Z,311.80
2023-04-16T08:40:29.461Z,324.20
2023-04-16T08:41:29.340Z,330.90
2023-04-16T08:42:29.300Z,324.80
2023-04-16T08:43:29.236Z,343.20
2023-04-16T08:44:29.171Z,342.70
2023-04-16T08:45:29.096Z,355.90
2023-04-16T08:46:29.117Z,348.30
2023-04-16T08:47:29.020Z,357.00
2023-04-16T08:48:28.924Z,355.00
2023-04-16T08:49:28.881Z,355.70
2023-04-16T08:50:28.788Z,331.40
2023-04-16T08:51:28.739Z,354.00
2023-04-16T08:52:28.636Z,348.20
2023-04-16T08:53:28.639Z,362.80
2023-04-16T08:54:28.513Z,360.00
2023-04-16T08:55:28.514Z,348.60
2023-04-16T08:56:28.446Z,370.60
2023-04-16T08:58:03.594Z,375.70
2023-04-16T08:58:28.258Z,352.10
2023-04-16T08:59:28.193Z,360.20
2023-04-16T09:00:28.135Z,340.30
2023-04-16T09:01:28.114Z,343.10
2023-04-16T09:02:28.193Z,337.70
2023-04-16T09:03:28.043Z,355.70
2023-04-16T09:04:27.968Z,354.90
2023-04-16T09:05:27.834Z,354.60
2023-04-16T09:06:27.815Z,330.60
2023-04-16T09:07:27.708Z,337.60
2023-04-16T09:08:27.625Z,355.20
2023-04-16T09:09:27.577Z,368.00
2023-04-16T09:10:27.530Z,346.80
2023-04-16T09:11:27.480Z,371.20
2023-04-16T09:12:27.420Z,364.30
2023-04-16T09:13:27.333Z,346.30
2023-04-16T09:14:27.254Z,352.30
2023-04-16T09:17:06.514Z,353.70
2023-04-16T09:18:07.394Z,338.20
2023-04-16T09:19:07.439Z,360.20
2023-04-16T09:20:07.287Z,364.40
2023-04-16T09:21:07.256Z,359.70
2023-04-16T09:22:07.199Z,360.10
2023-04-16T09:23:07.129Z,314.80
2023-04-16T09:24:07.042Z,327.40
2023-04-16T09:25:07.011Z,330.60
2023-04-16T09:26:06.883Z,353.20
2023-04-16T09:27:06.847Z,339.00
2023-04-16T09:28:06.798Z,341.80
2023-04-16T09:29:06.718Z,347.50
2023-04-16T09:30:06.681Z,346.40
2023-04-16T09:31:06.603Z,344.70
2023-04-16T09:32:06.613Z,334.30
2023-04-16T09:33:06.431Z,332.70
2023-04-16T09:34:06.449Z,341.50
2023-04-16T09:35:06.340Z,334.90
2023-04-16T09:36:06.248Z,307.40
2023-04-16T09:37:06.209Z,332.60
2023-04-16T09:38:06.153Z,314.60
2023-04-16T09:39:06.092Z,300.80
2023-04-16T09:40:06.068Z,307.10
2023-04-16T09:41:05.983Z,303.20
2023-04-16T09:42:05.919Z,287.20
2023-04-16T09:43:05.862Z,297.40
2023-04-16T09:44:05.765Z,278.40
2023-04-16T09:45:06.287Z,280.60
2023-04-16T09:46:08.222Z,254.30
2023-04-16T09:47:05.607Z,256.20
2023-04-16T09:48:05.533Z,275.10
2023-04-16T09:49:05.479Z,282.80
2023-04-16T09:50:05.370Z,288.40
2023-04-16T09:51:05.327Z,274.80
2023-04-16T09:52:22.629Z,262.80
2023-04-16T09:53:05.221Z,253.80
2023-04-16T09:54:05.140Z,261.40
2023-04-16T09:55:05.074Z,271.40
2023-04-16T09:56:04.990Z,266.90
2023-04-16T09:57:04.927Z,263.90
2023-04-16T09:58:22.220Z,255.80
2023-04-16T09:59:04.817Z,261.20
2023-04-16T10:00:04.795Z,247.30
2023-04-16T10:01:04.689Z,249.00
2023-04-16T10:02:15.334Z,231.30
2023-04-16T10:03:04.643Z,237.30
2023-04-16T10:04:04.608Z,214.90
2023-04-16T10:05:04.438Z,213.70
2023-04-16T10:06:04.420Z,198.90
2023-04-16T10:07:04.311Z,188.20
2023-04-16T10:08:04.244Z,200.70
2023-04-16T10:09:04.161Z,210.40
2023-04-16T10:10:04.139Z,195.50
2023-04-16T10:11:04.062Z,202.50
2023-04-16T10:12:03.959Z,206.40
2023-04-16T10:13:03.899Z,218.90
2023-04-16T10:14:03.887Z,210.20
2023-04-16T10:15:03.773Z,204.70
2023-04-16T10:16:03.747Z,197.20
2023-04-16T10:17:03.729Z,184.70
2023-04-16T10:18:03.706Z,174.80
2023-04-16T10:19:03.550Z,188.60
2023-04-16T10:20:03.480Z,182.30
2023-04-16T10:21:03.439Z,173.90
2023-04-16T10:22:03.376Z,191.60
2023-04-16T10:23:03.278Z,201.30
2023-04-16T10:24:03.235Z,199.20
2023-04-16T10:25:03.134Z,192.00
2023-04-16T10:26:03.114Z,194.60
2023-04-16T10:27:03.009Z,171.30
2023-04-16T10:29:12.366Z,162.00
2023-04-16T10:30:13.083Z,147.50
2023-04-16T10:31:13.086Z,158.40
2023-04-16T10:32:12.974Z,144.10
2023-04-16T10:33:12.913Z,149.60
2023-04-16T10:34:12.884Z,156.30
2023-04-16T10:35:12.763Z,149.20
2023-04-16T10:36:12.728Z,138.50
2023-04-16T10:37:12.646Z,148.10
2023-04-16T10:38:12.603Z,159.90
2023-04-16T10:39:14.705Z,163.90
2023-04-16T10:40:12.606Z,177.90
2023-04-16T10:41:12.382Z,178.50
2023-04-16T10:42:12.289Z,161.90
2023-04-16T10:43:12.279Z,162.60
2023-04-16T10:44:12.220Z,166.00
2023-04-16T10:45:12.131Z,154.70
2023-04-16T10:46:12.065Z,148.30
2023-04-16T10:47:11.999Z,164.30
2023-04-16T10:48:11.936Z,162.10
2023-04-16T10:49:11.909Z,173.90
2023-04-16T10:50:11.847Z,148.30
2023-04-16T10:51:11.745Z,150.10
2023-04-16T10:52:11.698Z,137.90
2023-04-16T10:53:11.649Z,145.90
2023-04-16T10:54:11.580Z,143.50
2023-04-16T10:55:11.474Z,130.80
2023-04-16T10:56:11.456Z,124.90
2023-04-16T10:57:11.340Z,111.70
2023-04-16T10:58:11.314Z,114.10
2023-04-16T10:59:11.429Z,133.10
2023-04-16T11:00:11.178Z,125.80
2023-04-16T11:01:11.111Z,119.20
2023-04-16T11:02:11.134Z,130.80
2023-04-16T11:03:11.079Z,110.50
2023-04-16T11:04:11.080Z,114.00
2023-04-16T11:05:10.830Z,115.20
2023-04-16T11:06:10.765Z,110.50
2023-04-16T11:07:10.703Z,106.20
2023-04-16T11:08:10.670Z,96.30
2023-04-16T11:09:10.831Z,107.80
2023-04-16T11:10:10.559Z,107.40
2023-04-16T11:11:10.451Z,98.30
2023-04-16T11:12:10.415Z,111.50
2023-04-16T11:13:10.347Z,103.70
2023-04-16T11:14:10.346Z,96.70
2023-04-16T11:15:10.239Z,109.50
2023-04-16T11:16:10.167Z,104.70
2023-04-16T11:17:10.068Z,99.80
2023-04-16T11:18:10.050Z,103.20
2023-04-16T11:19:10.221Z,92.20
2023-04-16T11:20:17.901Z,94.80
2023-04-16T11:21:09.813Z,93.70
2023-04-16T11:22:44.715Z,95.00
2023-04-16T11:23:09.748Z,94.40
2023-04-16T11:24:09.650Z,101.20
2023-04-16T11:25:09.576Z,113.80
2023-04-16T11:26:09.549Z,111.50
2023-04-16T11:27:09.431Z,109.00
2023-04-16T11:28:09.426Z,110.20
2023-04-16T11:29:09.471Z,101.50
2023-04-16T11:30:09.240Z,102.20
2023-04-16T11:31:09.314Z,98.80
2023-04-16T11:32:09.178Z,96.90
2023-04-16T11:33:09.112Z,101.60
2023-04-16T11:34:09.022Z,103.50
2023-04-16T11:35:08.924Z,98.20
2023-04-16T11:36:08.898Z,95.30
2023-04-16T11:37:08.849Z,107.90
2023-04-16T11:38:08.805Z,95.20
2023-04-16T11:39:09.003Z,100.30
2023-04-16T11:40:08.650Z,96.40
2023-04-16T11:41:08.598Z,104.90
2023-04-16T11:42:08.548Z,94.70
2023-04-16T11:43:08.467Z,86.80
2023-04-16T11:44:08.379Z,91.40
2023-04-16T11:45:08.340Z,91.20
2023-04-16T11:46:24.121Z,98.60
2023-04-16T11:47:08.257Z,99.90
2023-04-16T11:48:10.621Z,110.30
2023-04-16T11:49:08.177Z,108.30
2023-04-16T11:50:08.004Z,117.70
2023-04-16T11:51:07.934Z,122.90
2023-04-16T11:52:07.902Z,120.30
2023-04-16T11:53:07.811Z,106.00
2023-04-16T11:54:09.123Z,114.90
2023-04-16T11:55:07.719Z,109.30
2023-04-16T11:56:07.693Z,112.60
2023-04-16T11:57:07.530Z,110.10
2023-04-16T11:58:07.472Z,107.70
2023-04-16T11:59:07.527Z,101.10
2023-04-16T12:00:09.197Z,102.20
2023-04-16T12:01:07.301Z,100.60
2023-04-16T12:02:07.303Z,109.30
2023-04-16T12:03:07.296Z,102.70
2023-04-16T12:04:07.521Z,117.80
2023-04-16T12:05:07.032Z,112.90
2023-04-16T12:06:06.991Z,109.80
2023-04-16T12:07:06.909Z,118.70
2023-04-16T12:08:06.875Z,125.10
2023-04-16T12:09:06.816Z,124.40
2023-04-16T12:10:06.711Z,133.50
2023-04-16T12:11:06.665Z,117.10
2023-04-16T12:12:06.631Z,108.90
2023-04-16T12:13:06.554Z,100.10
2023-04-16T12:14:06.449Z,92.20
2023-04-16T12:15:06.389Z,102.20
2023-04-16T12:16:06.356Z,117.00
2023-04-16T12:17:06.392Z,106.60
2023-04-16T12:18:06.264Z,108.90
2023-04-16T12:19:06.190Z,114.50
2023-04-16T12:20:06.126Z,107.00
2023-04-16T12:21:06.055Z,97.10
2023-04-16T12:22:05.978Z,103.30
2023-04-16T12:23:05.882Z,117.00
2023-04-16T12:24:05.845Z,127.50
2023-04-16T12:25:05.756Z,108.20
2023-04-16T12:26:05.716Z,99.60
2023-04-16T12:27:05.679Z,101.20
2023-04-16T12:28:05.597Z,110.80
2023-04-16T12:29:05.509Z,95.20
2023-04-16T12:30:05.453Z,98.50
2023-04-16T12:31:05.451Z,104.90
2023-04-16T12:32:05.361Z,87.90
2023-04-16T12:33:05.307Z,88.70
2023-04-16T12:34:05.255Z,108.20
2023-04-16T12:35:05.156Z,95.70